Time;durP1;ratioP1;P1;durP2;ratioP2;P2;SDS_P1;SDS_P2;PMS_P1;PMS_P2;Temp;Humidity;BMP_temperature;BMP_pressure;BME280_temperature;BME280_humidity;BME280_pressure;Samples;Min_cycle;Max_cycle;Signal;HPM_P1;HPM_P2
2022/10/02 00:01:16;;;;;;;14.07;4.78;;;;;;;14.59;65.86;101367.47;5083428;28;20048;-59
2022/10/02 00:03:45;;;;;;;13.52;3.30;;;;;;;14.61;65.58;101373.47;5075386;28;20419;-59
2022/10/02 00:06:20;;;;;;;13.52;4.22;;;;;;;14.60;65.91;101379.94;5079269;28;20045;-59
2022/10/02 00:08:51;;;;;;;16.80;3.30;;;;;;;14.60;65.73;101378.03;5081181;28;20071;-59
2022/10/02 00:11:22;;;;;;;10.52;3.30;;;;;;;14.60;66.13;101386.16;5088391;28;20063;-59
2022/10/02 00:13:55;;;;;;;16.83;4.10;;;;;;;14.52;65.94;101380.28;5080432;28;20055;-59
2022/10/02 00:16:29;;;;;;;19.00;3.88;;;;;;;14.61;65.84;101384.28;5076266;28;20044;-59
2022/10/02 00:18:57;;;;;;;15.60;3.83;;;;;;;14.61;65.88;101387.81;5079716;28;20135;-59
2022/10/02 00:21:37;;;;;;;11.38;3.28;;;;;;;14.61;66.00;101392.41;5073284;28;20048;-59
2022/10/02 00:24:08;;;;;;;12.85;3.28;;;;;;;14.61;66.05;101398.63;5081056;28;20059;-59
2022/10/02 00:26:40;;;;;;;13.88;3.67;;;;;;;14.61;65.94;101395.09;5084041;28;20052;-59
2022/10/02 00:29:23;;;;;;;14.02;3.30;;;;;;;14.61;66.02;101392.41;5081140;28;20044;-59
2022/10/02 00:32:03;;;;;;;11.32;3.00;;;;;;;14.62;66.18;101391.34;5082912;28;20060;-59
2022/10/02 00:34:44;;;;;;;12.27;3.05;;;;;;;14.61;65.79;101400.50;5083009;28;20072;-59
2022/10/02 00:37:21;;;;;;;11.65;2.90;;;;;;;14.60;66.06;101396.97;5081627;28;20045;-59
2022/10/02 00:40:02;;;;;;;17.88;3.78;;;;;;;14.61;66.12;101401.34;5078102;28;20053;-59
2022/10/02 00:42:54;;;;;;;10.18;3.10;;;;;;;14.62;65.86;101399.44;5084862;28;20041;-59
2022/10/02 00:45:38;;;;;;;12.07;3.38;;;;;;;14.62;66.03;101408.38;5090770;28;20394;-59
2022/10/02 00:48:21;;;;;;;12.50;3.15;;;;;;;14.62;66.04;101408.38;5085499;28;20100;-58
2022/10/02 00:50:57;;;;;;;12.18;3.40;;;;;;;14.62;66.17;101411.09;5075690;28;20053;-59
2022/10/02 00:53:36;;;;;;;13.70;4.13;;;;;;;14.61;66.38;101405.91;5085116;28;20058;-59
2022/10/02 00:56:19;;;;;;;16.58;3.67;;;;;;;14.61;66.25;101405.91;5081428;28;20498;-59
2022/10/02 00:59:17;;;;;;;11.45;3.53;;;;;;;14.59;66.54;101408.84;5087357;28;20068;-59
2022/10/02 01:01:52;;;;;;;13.93;3.85;;;;;;;14.59;66.29;101406.16;5078778;28;20368;-59
2022/10/02 01:04:28;;;;;;;11.43;3.17;;;;;;;14.58;66.48;101407.22;5082896;28;20056;-59
2022/10/02 01:06:56;;;;;;;12.13;3.35;;;;;;;14.58;66.42;101414.50;5082014;28;20045;-59
2022/10/02 01:09:25;;;;;;;16.33;3.35;;;;;;;14.49;66.80;101397.78;5086395;28;20052;-59
2022/10/02 01:11:53;;;;;;;14.02;3.97;;;;;;;14.57;66.85;101412.84;5082095;28;20112;-59
2022/10/02 01:14:31;;;;;;;13.13;3.47;;;;;;;14.56;66.87;101422.84;5086371;28;20044;-59
2022/10/02 01:17:00;;;;;;;13.55;3.55;;;;;;;14.56;66.83;101422.84;5087209;28;20127;-59
2022/10/02 01:19:35;;;;;;;12.65;4.25;;;;;;;14.56;66.60;101417.44;5083690;28;20048;-59
2022/10/02 01:22:13;;;;;;;13.40;3.42;;;;;;;14.56;66.83;101411.22;5085228;28;20052;-59
2022/10/02 01:24:48;;;;;;;11.07;3.65;;;;;;;14.47;66.70;101388.28;5084388;28;20052;-59
2022/10/02 01:27:16;;;;;;;17.08;3.42;;;;;;;14.54;66.92;101399.81;5083967;28;20061;-59
2022/10/02 01:29:46;;;;;;;14.25;4.57;;;;;;;14.53;66.86;101404.38;5084794;28;20049;-59
2022/10/02 01:32:14;;;;;;;15.65;3.72;;;;;;;14.53;66.89;101406.25;5085358;28;20048;-59
2022/10/02 01:34:42;;;;;;;8.07;2.72;;;;;;;14.52;66.39;101400.03;5088492;28;20056;-60
2022/10/02 01:37:10;;;;;;;12.27;3.78;;;;;;;14.52;66.53;101407.31;5087172;28;20041;-59
2022/10/02 01:39:38;;;;;;;15.13;3.88;;;;;;;14.51;66.98;101401.09;5084381;28;20049;-59
2022/10/02 01:42:07;;;;;;;12.73;3.45;;;;;;;14.52;66.47;101401.91;5081185;28;20041;-59
2022/10/02 01:44:35;;;;;;;17.05;5.10;;;;;;;14.50;66.56;101402.16;5078381;28;20206;-60
2022/10/02 01:47:07;;;;;;;17.63;3.60;;;;;;;14.52;66.57;101407.31;5085144;28;20044;-59
2022/10/02 01:49:47;;;;;;;11.25;3.08;;;;;;;14.50;66.79;101404.03;5083600;28;20104;-59
2022/10/02 01:52:31;;;;;;;12.60;3.47;;;;;;;14.50;66.60;101398.63;5086583;28;20053;-59
2022/10/02 01:55:26;;;;;;;11.93;2.65;;;;;;;14.50;66.72;101414.84;5082082;28;20230;-59
2022/10/02 01:58:16;;;;;;;11.55;3.33;;;;;;;14.49;66.57;101411.31;5084733;28;20060;-59
2022/10/02 02:00:57;;;;;;;16.50;5.00;;;;;;;14.49;66.93;101407.78;5083908;28;20045;-59
2022/10/02 02:03:37;;;;;;;12.88;3.92;;;;;;;14.49;66.92;101405.91;5084404;28;20048;-59
2022/10/02 02:06:12;;;;;;;10.23;3.28;;;;;;;14.49;66.83;101402.38;5082317;28;20130;-59
2022/10/02 02:08:47;;;;;;;15.70;3.42;;;;;;;14.49;66.80;101403.22;5084008;28;20052;-59
2022/10/02 02:11:17;;;;;;;13.93;3.42;;;;;;;14.49;66.66;101411.31;5083735;28;20120;-59
2022/10/02 02:13:50;;;;;;;14.95;4.07;;;;;;;14.51;66.75;101414.63;5070647;28;20036;-59
2022/10/02 02:16:24;;;;;;;9.55;2.90;;;;;;;14.51;66.64;101406.50;5081803;28;20052;-59
2022/10/02 02:19:01;;;;;;;11.07;3.13;;;;;;;14.52;66.74;101405.44;5085862;28;20059;-60
2022/10/02 02:21:30;;;;;;;;;;;;;;;14.51;67.10;101395.69;5080002;28;20052;-59
2022/10/02 02:24:02;;;;;;;19.02;4.45;;;;;;;14.53;66.98;101411.69;5084901;28;19928;-59
2022/10/02 02:26:30;;;;;;;12.93;2.97;;;;;;;14.52;67.54;101412.72;5085502;28;20052;-59
2022/10/02 02:29:06;;;;;;;12.00;3.60;;;;;;;14.54;67.53;101405.22;5082568;28;20049;-59
2022/10/02 02:31:38;;;;;;;10.77;3.10;;;;;;;14.44;67.24;101397.69;5083314;28;20048;-60
2022/10/02 02:34:11;;;;;;;16.55;4.15;;;;;;;14.46;67.92;101414.50;5073438;28;20358;-59
2022/10/02 02:36:44;;;;;;;12.90;4.22;;;;;;;14.53;68.21;101417.91;5083940;28;20055;-59
2022/10/02 02:39:15;;;;;;;15.98;4.18;;;;;;;14.53;68.19;101433.31;5084223;28;20044;-59
2022/10/02 02:41:47;;;;;;;14.73;3.50;;;;;;;14.54;68.56;101432.25;5082770;28;20053;-59
2022/10/02 02:44:22;;;;;;;13.15;3.97;;;;;;;14.54;68.54;101433.06;5083682;28;20394;-60
2022/10/02 02:47:06;;;;;;;16.92;4.97;;;;;;;14.54;68.75;101433.06;5084909;28;20048;-59
2022/10/02 02:49:46;;;;;;;17.02;4.90;;;;;;;14.55;68.39;101423.91;5077961;28;20048;-59
2022/10/02 02:52:21;;;;;;;18.17;4.40;;;;;;;14.55;69.50;101433.91;5081738;28;20040;-59
2022/10/02 02:54:53;;;;;;;14.27;3.92;;;;;;;14.55;69.70;101432.03;5075052;28;20044;-59
2022/10/02 02:57:27;;;;;;;12.90;3.83;;;;;;;14.56;69.58;101440.97;5085116;28;20301;-60
2022/10/02 02:59:59;;;;;;;22.02;3.95;;;;;;;14.47;69.07;101413.44;5085548;28;20044;-59
2022/10/02 03:02:26;;;;;;;15.10;3.67;;;;;;;14.54;69.29;101441.19;5073670;28;20182;-59
2022/10/02 03:04:54;;;;;;;13.57;3.83;;;;;;;14.55;68.82;101431.19;5084429;28;20110;-60
2022/10/02 03:07:22;;;;;;;12.93;3.28;;;;;;;14.53;68.74;101427.91;5084710;28;20048;-59
2022/10/02 03:10:01;;;;;;;11.93;2.63;;;;;;;14.52;68.75;101418.16;5083871;28;20052;-59
2022/10/02 03:12:41;;;;;;;13.07;3.20;;;;;;;14.52;68.93;101424.38;5082581;28;20053;-59
2022/10/02 03:15:25;;;;;;;9.13;3.10;;;;;;;14.51;68.87;101417.31;5078985;28;20053;-59
2022/10/02 03:18:08;;;;;;;11.20;3.17;;;;;;;14.50;68.69;101406.72;5083292;28;20058;-60
2022/10/02 03:20:43;;;;;;;9.95;2.70;;;;;;;14.50;68.76;101420.25;5082158;28;20052;-60
2022/10/02 03:23:22;;;;;;;8.13;2.45;;;;;;;14.50;68.91;101409.44;5082113;28;20052;-60
2022/10/02 03:25:54;;;;;;;10.25;2.50;;;;;;;14.49;68.85;101416.72;5077411;28;20049;-59
2022/10/02 03:28:27;;;;;;;8.55;2.15;;;;;;;14.49;69.10;101414.03;5082813;28;20482;-60
2022/10/02 03:31:19;;;;;;;7.82;2.33;;;;;;;14.48;69.04;101419.66;5074838;28;20049;-59
2022/10/02 03:33:50;;;;;;;10.10;2.88;;;;;;;14.48;68.97;101420.50;5080953;28;20048;-60
2022/10/02 03:36:19;;;;;;;8.30;2.30;;;;;;;14.47;69.03;101412.63;5071365;28;20068;-59
2022/10/02 03:38:49;;;;;;;5.13;1.92;;;;;;;14.47;68.58;101413.44;5082458;28;20414;-60
2022/10/02 03:41:36;;;;;;;5.95;1.85;;;;;;;14.45;68.66;101420.13;5079154;28;20068;-59
2022/10/02 03:44:04;;;;;;;6.05;1.90;;;;;;;14.45;68.89;101417.44;5080347;28;20052;-59
2022/10/02 03:46:33;;;;;;;5.80;1.77;;;;;;;14.39;68.47;101411.03;5073428;28;20049;-59
2022/10/02 03:49:01;;;;;;;6.68;2.00;;;;;;;14.43;68.84;101423.06;5081996;28;20040;-59
2022/10/02 03:51:29;;;;;;;10.38;2.70;;;;;;;14.43;68.82;101420.38;5090574;28;20061;-59
2022/10/02 03:53:57;;;;;;;4.78;1.95;;;;;;;14.43;68.93;101420.38;5075867;28;20053;-59
2022/10/02 03:56:33;;;;;;;7.90;1.98;;;;;;;14.43;68.79;101424.94;5079646;28;20052;-60
2022/10/02 03:59:05;;;;;;;9.43;2.80;;;;;;;14.42;68.65;101429.53;5074173;28;20048;-59
2022/10/02 04:01:39;;;;;;;8.60;3.00;;;;;;;14.41;68.60;101427.84;5083166;28;20050;-59
2022/10/02 04:04:16;;;;;;;6.88;2.08;;;;;;;14.42;68.73;101423.31;5077496;28;20048;-59
2022/10/02 04:06:47;;;;;;;5.82;2.40;;;;;;;14.41;68.84;101414.34;5070041;28;20044;-59
2022/10/02 04:09:21;;;;;;;12.05;2.85;;;;;;;14.42;68.57;101420.59;5072058;28;20152;-59
2022/10/02 04:11:56;;;;;;;11.23;2.53;;;;;;;14.42;68.92;101420.59;5077076;28;20095;-59
2022/10/02 04:14:30;;;;;;;7.38;3.10;;;;;;;14.43;68.84;101430.38;5079269;28;20048;-59
2022/10/02 04:17:05;;;;;;;10.18;3.10;;;;;;;14.43;69.10;101433.88;5077580;28;20049;-59
2022/10/02 04:19:37;;;;;;;10.65;3.03;;;;;;;14.43;69.02;101423.06;5070257;28;20045;-59
2022/10/02 04:22:11;;;;;;;6.90;2.45;;;;;;;14.43;68.82;101430.38;5083104;28;20113;-59
2022/10/02 04:24:45;;;;;;;15.07;3.92;;;;;;;14.38;69.46;101432.91;5086298;28;20051;-59
2022/10/02 04:27:18;;;;;;;13.05;3.22;;;;;;;14.44;70.61;101432.00;5071674;28;20041;-59
2022/10/02 04:29:51;;;;;;;16.92;4.38;;;;;;;14.44;69.69;101423.91;5078441;28;20059;-59
2022/10/02 04:32:24;;;;;;;11.75;3.55;;;;;;;14.45;70.00;101420.13;5074087;28;20056;-59
2022/10/02 04:34:53;;;;;;;11.30;3.92;;;;;;;14.45;70.95;101433.66;5082026;28;20063;-59
2022/10/02 04:37:46;;;;;;;11.73;3.58;;;;;;;14.45;70.23;101444.47;5084243;28;20052;-59
2022/10/02 04:40:30;;;;;;;10.52;3.25;;;;;;;14.43;70.84;101450.13;5070297;28;20071;-59
2022/10/02 04:43:14;;;;;;;17.30;4.05;;;;;;;14.44;70.77;101451.75;5075811;28;20135;-59
2022/10/02 04:45:58;;;;;;;11.60;3.90;;;;;;;14.44;69.96;101448.22;5076325;28;20053;-59
2022/10/02 04:48:48;;;;;;;12.68;4.00;;;;;;;14.43;69.81;101447.41;5080836;28;20109;-59
2022/10/02 04:51:30;;;;;;;10.15;3.47;;;;;;;14.44;70.11;101450.94;5082006;28;20233;-61
2022/10/02 04:54:26;;;;;;;9.68;3.40;;;;;;;14.43;69.61;101447.41;5070249;28;20064;-60
2022/10/02 04:57:18;;;;;;;13.32;3.30;;;;;;;14.44;70.10;101451.75;5083711;28;20048;-59
2022/10/02 04:59:58;;;;;;;13.68;3.67;;;;;;;14.44;70.05;101461.75;5085599;28;20049;-59
2022/10/02 05:02:43;;;;;;;17.13;4.20;;;;;;;14.44;70.86;101470.69;5083538;28;20568;-60
2022/10/02 05:05:25;;;;;;;14.07;4.45;;;;;;;14.43;70.86;101465.50;5072931;28;20048;-59
2022/10/02 05:08:10;;;;;;;18.98;3.70;;;;;;;14.44;70.55;101472.56;5079945;28;20052;-59
2022/10/02 05:10:50;;;;;;;15.80;3.78;;;;;;;14.43;70.83;101469.03;5072232;28;20053;-59
2022/10/02 05:13:36;;;;;;;17.80;4.55;;;;;;;14.45;71.13;101474.22;5082950;28;20139;-59
2022/10/02 05:16:20;;;;;;;21.20;4.75;;;;;;;14.34;71.19;101457.72;5085957;28;20052;-59
2022/10/02 05:19:20;;;;;;;19.57;4.38;;;;;;;14.44;70.74;101469.88;4967898;28;10001143;-59
2022/10/02 05:22:13;;;;;;;13.35;4.30;;;;;;;14.42;70.50;101463.88;5073801;28;20275;-59
2022/10/02 05:24:48;;;;;;;10.77;3.75;;;;;;;14.43;70.65;101468.22;5075138;28;20048;-59
2022/10/02 05:27:37;;;;;;;12.75;3.40;;;;;;;14.42;70.82;101475.50;5077537;28;20056;-59
2022/10/02 05:30:09;;;;;;;14.80;4.75;;;;;;;14.42;70.47;101480.91;5074978;28;20040;-59
2022/10/02 05:33:18;;;;;;;17.80;4.35;;;;;;;14.42;70.74;101477.41;5079093;28;20057;-59
2022/10/02 05:35:58;;;;;;;13.35;3.78;;;;;;;14.41;70.51;101481.13;5070176;28;20064;-59
2022/10/02 05:38:43;;;;;;;16.45;4.15;;;;;;;14.42;70.46;101488.22;5074406;28;20078;-60
2022/10/02 05:41:18;;;;;;;17.27;3.63;;;;;;;14.34;70.81;101482.03;5074695;28;20050;-59
2022/10/02 05:43:49;;;;;;;13.65;4.30;;;;;;;14.40;70.54;101488.41;5077474;28;20052;-61
2022/10/02 05:46:22;;;;;;;15.05;3.65;;;;;;;14.42;69.99;101504.44;5079113;28;21237;-59
2022/10/02 05:48:57;;;;;;;17.65;4.68;;;;;;;14.41;70.63;101495.47;5077123;28;20413;-59
2022/10/02 05:51:35;;;;;;;10.95;3.08;;;;;;;14.41;70.47;101497.34;5082122;28;20135;-58
2022/10/02 05:54:20;;;;;;;12.50;3.58;;;;;;;14.40;70.60;101501.94;5075014;28;20052;-59
2022/10/02 05:56:54;;;;;;;11.45;3.25;;;;;;;14.40;70.70;101503.81;5082879;28;20044;-58
2022/10/02 05:59:33;;;;;;;22.52;4.07;;;;;;;14.40;70.55;101504.63;5077636;28;20060;-59
2022/10/02 06:02:05;;;;;;;14.95;4.20;;;;;;;14.40;70.85;101503.81;5072420;28;20052;-58
2022/10/02 06:04:39;;;;;;;11.60;3.42;;;;;;;14.40;70.84;101503.81;5075017;28;20049;-59
2022/10/02 06:07:10;;;;;;;12.73;2.88;;;;;;;14.40;71.02;101501.94;5083246;28;20059;-58
2022/10/02 06:09:47;;;;;;;12.57;3.78;;;;;;;14.40;70.67;101506.50;5079076;28;20051;-58
2022/10/02 06:12:25;;;;;;;15.68;4.10;;;;;;;14.31;70.74;101496.03;5080787;28;20045;-58
2022/10/02 06:15:00;;;;;;;11.68;3.38;;;;;;;14.39;70.43;101510.28;5082761;28;20058;-59
2022/10/02 06:17:33;;;;;;;10.43;2.97;;;;;;;14.41;70.82;101516.28;5080064;28;20045;-58
2022/10/02 06:20:05;;;;;;;11.35;4.28;;;;;;;14.40;70.41;101511.91;5077465;28;20049;-58
2022/10/02 06:22:35;;;;;;;12.93;3.42;;;;;;;14.40;70.54;101512.75;5078984;28;20054;-58
2022/10/02 06:25:11;;;;;;;9.30;2.75;;;;;;;14.42;70.87;101528.78;5076429;28;20048;-59
2022/10/02 06:27:45;;;;;;;12.27;3.97;;;;;;;14.42;71.04;101528.78;5082181;28;20053;-59
2022/10/02 06:30:16;;;;;;;9.35;3.20;;;;;;;14.41;70.84;101532.50;5080636;28;20052;-58
2022/10/02 06:32:51;;;;;;;14.95;4.40;;;;;;;14.41;71.17;101541.44;5079239;28;20056;-59
2022/10/02 06:35:36;;;;;;;12.75;3.13;;;;;;;14.42;70.59;101542.28;5082117;28;20064;-58
2022/10/02 06:38:18;;;;;;;13.35;3.63;;;;;;;14.41;70.90;101536.03;5076056;28;20056;-58
2022/10/02 06:40:55;;;;;;;12.00;3.13;;;;;;;14.42;70.48;101545.81;5079472;28;20044;-58
2022/10/02 06:43:42;;;;;;;9.15;3.85;;;;;;;14.42;70.48;101543.13;5079161;28;20059;-58
2022/10/02 06:46:25;;;;;;;9.65;3.28;;;;;;;14.42;70.27;101543.13;5081250;28;20044;-58
2022/10/02 06:48:59;;;;;;;13.43;3.13;;;;;;;14.43;70.58;101544.78;5077822;28;20049;-61
2022/10/02 06:51:37;;;;;;;15.05;4.32;;;;;;;14.43;71.13;101550.19;5078533;28;20037;-58
2022/10/02 06:54:28;;;;;;;10.07;2.92;;;;;;;14.43;71.71;101557.47;5073921;28;20070;-58
2022/10/02 06:57:12;;;;;;;13.32;3.78;;;;;;;14.44;71.62;101564.53;5073196;28;20063;-58
2022/10/02 07:00:01;;;;;;;8.68;3.10;;;;;;;14.45;71.17;101563.47;5080978;28;20433;-58
2022/10/02 07:02:51;;;;;;;10.13;3.20;;;;;;;14.34;71.86;101551.53;5076820;28;20544;-58
2022/10/02 07:05:58;;;;;;;10.73;3.22;;;;;;;14.42;71.53;101570.16;5070913;28;21823;-59
2022/10/02 07:08:37;;;;;;;15.10;3.28;;;;;;;14.36;71.47;101560.25;5078445;28;20040;-58
2022/10/02 07:11:14;;;;;;;15.55;3.80;;;;;;;14.45;71.56;101579.69;5075804;28;20067;-58
2022/10/02 07:13:57;;;;;;;11.43;4.13;;;;;;;14.45;72.02;101579.69;5084531;28;20049;-58
2022/10/02 07:16:39;;;;;;;12.30;4.07;;;;;;;14.44;71.99;101570.75;5081516;28;20055;-58
2022/10/02 07:19:20;;;;;;;13.77;3.00;;;;;;;14.45;71.81;101580.53;5071635;28;20059;-58
2022/10/02 07:21:59;;;;;;;10.38;2.97;;;;;;;14.45;72.20;101588.63;5085193;28;20049;-57
2022/10/02 07:24:47;;;;;;;11.55;3.17;;;;;;;14.46;71.83;101570.53;5083285;28;20040;-59
2022/10/02 07:27:20;;;;;;;12.00;3.50;;;;;;;14.46;71.99;101593.00;5084109;28;20067;-60
2022/10/02 07:29:58;;;;;;;12.27;4.28;;;;;;;14.46;72.89;101600.28;5078967;28;20060;-58
2022/10/02 07:32:46;;;;;;;8.10;3.40;;;;;;;14.45;72.48;101599.47;5086233;28;20533;-59
2022/10/02 07:35:27;;;;;;;11.25;3.92;;;;;;;14.45;73.66;101598.63;5088928;28;20051;-59
2022/10/02 07:38:09;;;;;;;10.57;3.58;;;;;;;14.45;73.37;101588.63;5082758;28;20412;-61
2022/10/02 07:40:50;;;;;;;13.20;3.92;;;;;;;14.45;73.39;101604.03;5080542;28;20044;-61
2022/10/02 07:43:32;;;;;;;11.27;4.28;;;;;;;14.45;73.00;101598.63;5081174;28;20044;-58
2022/10/02 07:46:14;;;;;;;12.95;3.78;;;;;;;14.44;72.58;101597.81;5085182;28;20051;-59
2022/10/02 07:49:02;;;;;;;11.50;3.72;;;;;;;14.44;72.47;101597.81;5083916;28;20099;-60
2022/10/02 07:51:49;;;;;;;12.45;4.18;;;;;;;14.46;72.79;101600.28;5084035;28;20063;-59
2022/10/02 07:54:51;;;;;;;11.00;4.72;;;;;;;14.46;73.15;101605.69;5076465;28;20063;-58
2022/10/02 07:57:36;;;;;;;13.77;4.60;;;;;;;14.45;73.24;101604.88;5084430;28;20048;-59
2022/10/02 08:00:11;;;;;;;13.63;4.40;;;;;;;14.44;72.96;101607.81;5085035;28;20063;-59
2022/10/02 08:02:47;;;;;;;12.02;4.78;;;;;;;14.46;72.99;101613.81;5072095;28;20063;-59
2022/10/02 08:05:22;;;;;;;8.90;3.83;;;;;;;14.45;72.87;101615.69;5083717;28;20119;-59
2022/10/02 08:07:54;;;;;;;11.10;4.68;;;;;;;14.46;72.71;101622.75;5082131;28;20295;-58
2022/10/02 08:10:25;;;;;;;9.27;3.92;;;;;;;14.46;72.52;101619.22;5076259;28;20395;-58
2022/10/02 08:13:03;;;;;;;11.40;4.10;;;;;;;14.46;72.75;101628.16;5077507;28;20132;-58
2022/10/02 08:15:37;;;;;;;10.40;3.20;;;;;;;14.47;72.27;101635.22;5072713;28;20151;-58
2022/10/02 08:18:14;;;;;;;12.80;3.88;;;;;;;14.40;72.61;101626.34;5080460;28;20052;-59
2022/10/02 08:21:02;;;;;;;11.60;3.95;;;;;;;14.47;72.36;101637.91;5076403;28;20044;-58
2022/10/02 08:23:36;;;;;;;8.80;3.60;;;;;;;14.48;72.77;101636.88;5081320;28;20049;-59
2022/10/02 08:26:09;;;;;;;8.93;2.80;;;;;;;14.49;72.43;101633.09;5082686;28;20049;-58
2022/10/02 08:28:42;;;;;;;9.27;3.70;;;;;;;14.50;72.60;101642.03;5079484;28;20516;-58
2022/10/02 08:31:11;;;;;;;12.88;3.20;;;;;;;14.50;72.58;101647.47;5083351;28;20055;-59
2022/10/02 08:33:42;;;;;;;10.60;3.20;;;;;;;14.47;72.13;101631.69;5082446;28;20053;-58
2022/10/02 08:36:31;;;;;;;11.93;3.88;;;;;;;14.52;72.55;101645.34;5082508;28;20052;-58
2022/10/02 08:39:11;;;;;;;7.75;3.05;;;;;;;14.50;72.57;101652.88;5075501;28;20088;-58
2022/10/02 08:42:17;;;;;;;6.13;2.88;;;;;;;14.50;73.15;101655.56;5080408;28;20037;-58
2022/10/02 08:45:17;;;;;;;9.82;3.53;;;;;;;14.50;73.49;101661.81;5081990;28;20459;-58
2022/10/02 08:48:22;;;;;;;7.95;3.47;;;;;;;14.51;73.00;101659.94;5078302;28;20519;-58
2022/10/02 08:51:32;;;;;;;12.15;3.28;;;;;;;14.53;73.47;101668.63;4719753;28;9999947;-58
2022/10/02 08:54:44;;;;;;;8.52;3.20;;;;;;;14.53;73.61;101674.06;5078588;28;20095;-58
2022/10/02 08:57:32;;;;;;;9.20;3.90;;;;;;;14.54;74.05;101667.59;5076087;28;20131;-60
2022/10/02 09:00:11;;;;;;;11.55;3.55;;;;;;;14.55;73.73;101669.25;5066781;28;20059;-59
2022/10/02 09:03:08;;;;;;;14.43;4.13;;;;;;;14.55;73.79;101677.34;5078008;28;20082;-58
2022/10/02 09:06:17;;;;;;;9.32;3.10;;;;;;;14.55;73.92;101686.28;5083274;28;20040;-58
2022/10/02 09:09:23;;;;;;;15.38;4.60;;;;;;;14.55;74.62;101685.47;5083413;28;20060;-59
2022/10/02 09:12:32;;;;;;;9.45;3.60;;;;;;;14.57;74.69;101691.47;5079274;28;20064;-58
2022/10/02 09:15:13;;;;;;;7.60;3.45;;;;;;;14.57;74.28;101692.31;5078630;28;20131;-58
2022/10/02 09:17:45;;;;;;;7.00;3.38;;;;;;;14.58;74.02;101691.25;5081404;28;20071;-58
2022/10/02 09:20:42;;;;;;;9.93;3.55;;;;;;;14.60;74.45;101686.44;5078494;28;20055;-58
2022/10/02 09:23:43;;;;;;;11.38;4.30;;;;;;;14.60;74.33;101681.03;5065767;28;20052;-59
2022/10/02 09:26:19;;;;;;;7.88;3.45;;;;;;;14.62;74.65;101684.34;5078990;28;20075;-58
2022/10/02 09:29:25;;;;;;;10.23;3.95;;;;;;;14.64;74.18;101684.09;5076468;28;20048;-58
2022/10/02 09:32:33;;;;;;;11.30;3.75;;;;;;;14.66;74.73;101682.00;5073155;28;20059;-58
2022/10/02 09:35:29;;;;;;;14.85;4.90;;;;;;;14.65;74.76;101686.59;5078781;28;20052;-59
2022/10/02 09:38:39;;;;;;;7.93;4.72;;;;;;;14.64;75.14;101686.81;5065222;28;20060;-58
2022/10/02 09:41:47;;;;;;;8.57;5.97;;;;;;;14.69;75.83;101694.25;5033593;28;20058;-58
2022/10/02 09:44:46;;;;;;;15.30;8.48;;;;;;;14.71;76.08;101702.97;5031967;28;20075;-58
2022/10/02 09:47:47;;;;;;;15.98;7.18;;;;;;;14.71;76.10;101706.50;5036435;28;20045;-58
2022/10/02 09:50:54;;;;;;;15.48;7.07;;;;;;;14.72;76.15;101702.72;5034237;28;20071;-58
2022/10/02 09:53:44;;;;;;;16.55;6.25;;;;;;;14.72;75.88;101697.31;4930137;29;20073;-58
2022/10/02 09:56:57;;;;;;;14.43;6.97;;;;;;;14.74;75.91;101702.50;4934117;29;20197;-58
2022/10/02 10:00:04;;;;;;;15.85;7.18;;;;;;;14.76;76.16;101705.81;4928453;29;20411;-59
2022/10/02 10:03:10;;;;;;;18.10;7.13;;;;;;;14.77;75.85;101712.88;4918079;29;20056;-59
2022/10/02 10:06:09;;;;;;;13.95;8.43;;;;;;;14.78;76.58;101714.53;4914881;29;20055;-59
2022/10/02 10:08:58;;;;;;;12.65;7.10;;;;;;;14.77;76.16;101710.16;4913886;29;20060;-60
2022/10/02 10:11:55;;;;;;;14.00;7.05;;;;;;;14.78;76.14;101712.63;4921143;29;20056;-60
2022/10/02 10:14:47;;;;;;;18.30;7.60;;;;;;;14.80;76.23;101715.94;4917889;29;20058;-61
2022/10/02 10:17:51;;;;;;;15.20;7.22;;;;;;;14.81;76.09;101717.59;4954896;28;20054;-60
2022/10/02 10:20:39;;;;;;;14.45;6.43;;;;;;;14.82;75.72;101730.06;4979438;28;20081;-60
2022/10/02 10:23:21;;;;;;;16.35;6.80;;;;;;;14.83;75.87;101725.47;4975480;28;20050;-60
2022/10/02 10:26:17;;;;;;;14.43;5.97;;;;;;;14.85;75.90;101726.09;4981948;28;20085;-60
2022/10/02 10:29:14;;;;;;;20.70;6.95;;;;;;;14.85;75.67;101737.72;4977253;28;20051;-60
2022/10/02 10:32:20;;;;;;;20.77;7.38;;;;;;;14.87;75.65;101754.56;5032247;28;20458;-59
2022/10/02 10:35:25;;;;;;;13.50;6.18;;;;;;;14.89;75.69;101762.47;4978291;28;20420;-60
2022/10/02 10:41:30;;;;;;;17.60;6.45;;;;;;;14.90;75.55;101764.94;5013384;28;20395;-63
2022/10/02 10:44:37;;;;;;;15.35;5.60;;;;;;;14.93;75.75;101771.78;5016164;28;20061;-61
2022/10/02 10:47:34;;;;;;;13.80;6.07;;;;;;;14.94;75.86;101776.97;5012977;28;20060;-59
2022/10/02 10:50:19;;;;;;;19.45;6.05;;;;;;;14.95;75.81;101778.63;5013802;28;20056;-62
2022/10/02 10:53:16;;;;;;;13.10;5.00;;;;;;;14.97;75.39;101786.50;5013889;28;20069;-62
2022/10/02 10:56:09;;;;;;;17.40;4.88;;;;;;;14.97;75.38;101783.81;5014154;28;20049;-61
2022/10/02 10:58:53;;;;;;;10.93;4.57;;;;;;;14.96;75.22;101782.97;5008229;28;20085;-61
2022/10/02 11:01:28;;;;;;;14.90;4.75;;;;;;;14.99;75.09;101781.69;5010804;28;20061;-61
2022/10/02 11:04:17;;;;;;;21.20;5.90;;;;;;;15.01;75.00;101784.19;5007903;28;20097;-62
2022/10/02 11:07:07;;;;;;;14.25;4.95;;;;;;;15.01;74.94;101768.75;5012420;28;20048;-64
2022/10/02 11:09:52;;;;;;;12.57;4.82;;;;;;;15.02;75.03;101765.00;5007576;28;20054;-61
2022/10/02 11:12:45;;;;;;;16.27;5.10;;;;;;;15.03;74.68;101771.25;5064274;28;20048;-62
2022/10/02 11:15:35;;;;;;;14.50;4.45;;;;;;;15.04;74.91;101757.47;5075493;28;20074;-61
2022/10/02 11:18:27;;;;;;;12.00;4.70;;;;;;;15.06;74.67;101765.38;5073690;28;20064;-62
2022/10/02 11:21:20;;;;;;;14.23;5.13;;;;;;;15.06;74.71;101771.59;5069575;28;20045;-61
2022/10/02 11:24:02;;;;;;;14.90;5.03;;;;;;;15.08;74.62;101763.25;5071701;28;20041;-62
2022/10/02 11:26:47;;;;;;;11.25;4.07;;;;;;;15.08;74.43;101766.78;5072424;28;20059;-61
2022/10/02 11:29:38;;;;;;;19.65;5.18;;;;;;;15.10;74.53;101783.63;5071652;28;20053;-61
2022/10/02 11:32:41;;;;;;;13.90;4.15;;;;;;;15.10;74.40;101780.09;5074111;28;20049;-61
2022/10/02 11:35:22;;;;;;;11.80;4.05;;;;;;;15.12;74.77;101786.94;5072576;28;20055;-61
2022/10/02 11:38:13;;;;;;;16.98;5.03;;;;;;;15.12;74.42;101791.53;5072961;28;20059;-61
2022/10/02 11:41:13;;;;;;;13.50;4.85;;;;;;;15.19;74.50;101793.09;5076079;28;20053;-62
2022/10/02 11:44:07;;;;;;;14.57;3.55;;;;;;;15.21;74.22;101792.84;5072413;28;20051;-61
2022/10/02 11:47:00;;;;;;;15.75;5.07;;;;;;;15.24;74.07;101790.53;5059373;28;20052;-61
2022/10/02 11:50:00;;;;;;;14.02;4.70;;;;;;;15.27;73.94;101792.78;5072032;28;20474;-61
2022/10/02 11:53:01;;;;;;;18.45;4.90;;;;;;;15.28;73.83;101783.59;5073640;28;20056;-61
2022/10/02 11:55:45;;;;;;;18.02;5.97;;;;;;;15.29;73.68;101781.69;5071105;28;20060;-62
2022/10/02 11:58:25;;;;;;;15.38;5.40;;;;;;;15.31;73.81;101787.72;5073431;28;20197;-62
2022/10/02 12:01:04;;;;;;;11.98;4.25;;;;;;;15.31;73.49;101790.44;5074350;28;20513;-61
2022/10/02 12:03:45;;;;;;;13.80;4.00;;;;;;;15.32;73.26;101792.09;5071377;28;20064;-62
2022/10/02 12:06:32;;;;;;;13.90;4.60;;;;;;;15.34;73.21;101789.97;5067170;28;20052;-62
2022/10/02 12:09:11;;;;;;;16.00;4.30;;;;;;;15.38;73.16;101799.28;5071674;28;20136;-62
2022/10/02 12:11:48;;;;;;;16.38;4.30;;;;;;;15.39;72.87;101792.81;5071682;28;20057;-61
2022/10/02 12:14:31;;;;;;;14.73;5.28;;;;;;;15.41;72.71;101785.28;5074395;28;20496;-61
2022/10/02 12:17:15;;;;;;;16.27;4.32;;;;;;;15.42;72.80;101789.63;5074737;28;20048;-61
2022/10/02 12:28:51;;;;;;;13.25;4.22;;;;;;;15.42;72.28;101799.66;5072708;28;20367;-61
2022/10/02 12:31:27;;;;;;;12.55;4.18;;;;;;;15.42;72.36;101803.19;5072861;28;20044;-61
2022/10/02 12:34:00;;;;;;;11.52;4.07;;;;;;;15.43;72.07;101804.00;5073141;28;20044;-60
2022/10/02 12:36:46;;;;;;;22.35;5.05;;;;;;;15.37;71.97;101791.38;5071776;28;20048;-61
2022/10/02 12:39:31;;;;;;;13.63;3.88;;;;;;;15.43;72.06;101807.53;5072951;28;20063;-61